Time;durP1;ratioP1;P1;durP2;ratioP2;P2;SDS_P1;SDS_P2;PMS_P1;PMS_P2;Temp;Humidity;BMP_temperature;BMP_pressure;BME280_temperature;BME280_humidity;BME280_pressure;Samples;Min_cycle;Max_cycle;Signal;HPM_P1;HPM_P2
2021/11/13 00:00:16;;;;;;;15.30;10.85;;;;;;;4.69;86.46;100513.06;681549;29;1113;-52
2021/11/13 00:00:39;;;;;;;15.45;11.30;;;;;;;4.67;86.88;100519.09;677120;29;3520;-52
2021/11/13 00:00:59;;;;;;;15.75;11.20;;;;;;;4.70;87.10;100513.94;679152;29;1057;-52
2021/11/13 00:01:20;;;;;;;16.52;11.35;;;;;;;4.69;86.82;100515.66;679008;29;1171;-56
2021/11/13 00:01:41;;;;;;;15.83;11.30;;;;;;;4.69;86.21;100515.66;678827;28;4710;-51
2021/11/13 00:02:01;;;;;;;14.63;11.33;;;;;;;4.64;86.67;100519.91;680645;28;1891;-51
2021/11/13 00:02:23;;;;;;;16.48;11.50;;;;;;;4.65;87.47;100516.44;681466;28;1748;-53
2021/11/13 00:02:44;;;;;;;16.63;11.23;;;;;;;4.61;87.46;100517.28;683243;28;1770;-51
2021/11/13 00:03:05;;;;;;;14.95;10.50;;;;;;;4.60;86.96;100515.50;684296;28;1651;-53
2021/11/13 00:03:25;;;;;;;17.33;10.77;;;;;;;4.66;86.77;100512.16;684640;28;1188;-53
2021/11/13 00:03:46;;;;;;;18.67;11.67;;;;;;;4.64;86.44;100514.72;682298;28;3449;-54
2021/11/13 00:04:06;;;;;;;14.95;10.65;;;;;;;4.89;85.85;100515.13;684520;28;1079;-51
2021/11/13 00:04:26;;;;;;;14.83;10.63;;;;;;;4.99;84.89;100513.56;683477;28;4564;-51
2021/11/13 00:04:47;;;;;;;15.35;10.55;;;;;;;5.10;84.50;100522.38;680557;28;1447;-52
2021/11/13 00:05:08;;;;;;;13.63;10.10;;;;;;;5.08;84.34;100517.16;680427;28;2144;-51
2021/11/13 00:05:28;;;;;;;15.82;10.73;;;;;;;4.99;85.86;100521.34;682011;28;2220;-51
2021/11/13 00:05:49;;;;;;;16.83;11.48;;;;;;;4.99;84.36;100509.25;681438;28;1295;-52
2021/11/13 00:06:09;;;;;;;14.67;10.97;;;;;;;4.99;84.35;100506.66;684315;28;1362;-51
2021/11/13 00:06:30;;;;;;;15.43;10.38;;;;;;;5.00;84.50;100513.59;686766;28;3219;-51
2021/11/13 00:06:51;;;;;;;15.32;10.48;;;;;;;5.04;84.10;100510.19;683585;28;3373;-52
2021/11/13 00:07:11;;;;;;;14.97;10.63;;;;;;;5.00;84.44;100523.94;684939;28;1412;-53
2021/11/13 00:07:32;;;;;;;15.38;11.05;;;;;;;4.95;84.63;100517.81;683271;28;4753;-52
2021/11/13 00:07:53;;;;;;;15.77;11.52;;;;;;;4.91;84.92;100519.47;683334;28;1453;-52
2021/11/13 00:08:13;;;;;;;14.97;11.33;;;;;;;4.88;85.40;100524.59;681016;28;2078;-51
2021/11/13 00:08:33;;;;;;;15.50;11.27;;;;;;;4.78;86.62;100521.00;681288;29;1165;-53
2021/11/13 00:08:55;;;;;;;15.55;10.77;;;;;;;4.75;86.44;100523.53;681679;28;1887;-54
2021/11/13 00:09:16;;;;;;;14.20;10.82;;;;;;;4.70;86.93;100524.31;679885;28;3593;-53
2021/11/13 00:09:37;;;;;;;15.30;11.33;;;;;;;4.67;87.05;100534.63;677496;28;3424;-54
2021/11/13 00:09:58;;;;;;;14.97;10.90;;;;;;;4.64;86.80;100534.53;681608;28;1470;-55
2021/11/13 00:10:25;;;;;;;16.17;11.73;;;;;;;4.73;86.57;100538.16;681899;28;1157;-52
2021/11/13 00:10:47;;;;;;;16.42;11.52;;;;;;;4.77;86.06;100534.78;680995;28;4931;-58
2021/11/13 00:11:11;;;;;;;15.05;11.05;;;;;;;4.86;85.57;100535.78;684410;28;3601;-52
2021/11/13 00:11:31;;;;;;;14.43;11.25;;;;;;;4.82;85.47;100544.34;683955;28;3580;-52
2021/11/13 00:11:52;;;;;;;15.67;11.60;;;;;;;4.81;85.79;100537.44;683258;28;1290;-52
2021/11/13 00:12:13;;;;;;;15.83;11.27;;;;;;;4.77;85.67;100545.13;686668;28;1640;-52
2021/11/13 00:12:33;;;;;;;15.27;11.20;;;;;;;4.72;86.62;100551.97;686066;28;1457;-52
2021/11/13 00:12:56;;;;;;;15.18;11.30;;;;;;;4.70;86.48;100556.25;684961;28;1074;-51
2021/11/13 00:13:19;;;;;;;14.43;10.77;;;;;;;4.80;85.89;100546.06;684476;28;1101;-52
2021/11/13 00:13:40;;;;;;;14.57;11.02;;;;;;;4.76;85.48;100551.19;682869;28;4699;-51
2021/11/13 00:14:02;;;;;;;15.07;11.27;;;;;;;4.75;85.91;100551.16;684606;28;3490;-50
2021/11/13 00:14:23;;;;;;;17.20;11.32;;;;;;;4.83;85.64;100554.75;682313;28;1352;-51
2021/11/13 00:14:46;;;;;;;15.07;11.23;;;;;;;4.79;85.91;100550.38;681597;28;1517;-50
2021/11/13 00:15:08;;;;;;;15.70;10.95;;;;;;;4.84;85.11;100550.44;680946;28;1234;-52
2021/11/13 00:15:29;;;;;;;15.30;10.90;;;;;;;4.82;85.55;100550.41;681494;28;1272;-53
2021/11/13 00:15:50;;;;;;;14.57;10.52;;;;;;;4.80;85.57;100546.06;683035;28;1283;-53
2021/11/13 00:16:10;;;;;;;15.23;10.77;;;;;;;4.77;85.86;100550.31;684459;28;1069;-54
2021/11/13 00:16:33;;;;;;;14.32;10.73;;;;;;;4.74;85.91;100545.09;685039;28;4790;-51
2021/11/13 00:16:55;;;;;;;14.93;10.85;;;;;;;4.71;85.80;100551.97;685820;28;3567;-52
2021/11/13 00:17:16;;;;;;;14.80;10.93;;;;;;;4.82;85.42;100554.72;686835;28;1307;-51
2021/11/13 00:17:37;;;;;;;15.80;11.38;;;;;;;4.87;85.33;100547.91;684846;28;1120;-51
2021/11/13 00:17:59;;;;;;;15.32;11.23;;;;;;;4.90;85.32;100553.13;683269;28;1642;-50
2021/11/13 00:18:22;;;;;;;15.90;10.93;;;;;;;4.86;85.47;100551.31;685103;28;1119;-50
2021/11/13 00:18:42;;;;;;;14.75;10.70;;;;;;;4.78;86.24;100546.03;682561;28;1264;-52
2021/11/13 00:19:02;;;;;;;14.10;10.63;;;;;;;4.81;86.30;100550.41;682869;28;1306;-50
2021/11/13 00:19:23;;;;;;;15.17;11.00;;;;;;;4.90;85.16;100546.25;683414;28;4625;-52
2021/11/13 00:19:44;;;;;;;15.23;11.02;;;;;;;4.94;85.06;100541.97;682298;28;2483;-55
2021/11/13 00:20:05;;;;;;;14.75;10.60;;;;;;;4.98;84.80;100541.16;680315;28;4088;-51
2021/11/13 00:20:27;;;;;;;16.73;11.18;;;;;;;5.13;84.65;100544.88;681436;28;1178;-50
2021/11/13 00:20:50;;;;;;;17.58;10.73;;;;;;;5.24;84.21;100548.50;680404;28;1224;-50
2021/11/13 00:21:11;;;;;;;14.73;10.52;;;;;;;5.28;83.38;100540.78;680544;29;1669;-52
2021/11/13 00:21:31;;;;;;;14.43;10.73;;;;;;;5.31;83.51;100552.06;680721;29;1081;-51
2021/11/13 00:21:51;;;;;;;13.80;9.95;;;;;;;5.28;83.68;100542.50;681429;28;1445;-52
2021/11/13 00:22:12;;;;;;;13.83;10.40;;;;;;;5.16;83.88;100540.59;681616;28;2066;-53
2021/11/13 00:22:33;;;;;;;13.75;10.63;;;;;;;5.08;84.46;100547.38;681131;28;4479;-53
2021/11/13 00:22:55;;;;;;;15.18;10.73;;;;;;;5.01;84.60;100551.59;680863;28;4046;-50
2021/11/13 00:23:17;;;;;;;14.88;10.68;;;;;;;4.98;84.89;100548.94;681306;28;1149;-51
2021/11/13 00:23:37;;;;;;;14.50;10.73;;;;;;;4.93;85.13;100550.59;681809;28;1149;-55
2021/11/13 00:23:58;;;;;;;14.43;10.37;;;;;;;4.86;85.24;100551.31;683427;28;2894;-52
2021/11/13 00:24:18;;;;;;;16.33;11.07;;;;;;;4.83;85.33;100553.88;683653;28;1370;-50
2021/11/13 00:24:42;;;;;;;15.57;10.50;;;;;;;4.78;85.40;100562.44;682728;28;1113;-51
2021/11/13 00:25:03;;;;;;;15.40;10.18;;;;;;;4.90;84.98;100554.00;683122;28;1480;-51
2021/11/13 00:25:24;;;;;;;14.63;10.10;;;;;;;4.91;85.13;100554.88;682899;28;4939;-53
2021/11/13 00:25:45;;;;;;;14.27;10.27;;;;;;;4.97;84.32;100554.09;681740;28;3104;-55
2021/11/13 00:26:06;;;;;;;14.37;10.33;;;;;;;5.11;83.83;100563.84;680770;28;3528;-50
2021/11/13 00:26:26;;;;;;;13.90;10.30;;;;;;;5.22;83.59;100556.25;684013;28;1244;-52
2021/11/13 00:26:47;;;;;;;15.85;10.43;;;;;;;5.25;83.43;100552.84;680088;28;1556;-53
2021/11/13 00:27:08;;;;;;;15.52;10.35;;;;;;;5.23;83.30;100546.75;680097;28;1354;-50
2021/11/13 00:27:30;;;;;;;14.95;10.32;;;;;;;5.17;83.88;100562.22;680166;28;1386;-51
2021/11/13 00:27:50;;;;;;;14.45;10.13;;;;;;;5.13;84.30;100550.06;680816;28;1275;-50
2021/11/13 00:28:10;;;;;;;15.02;10.43;;;;;;;5.13;84.02;100558.69;681069;28;1252;-50
2021/11/13 00:28:31;;;;;;;13.97;10.50;;;;;;;5.22;83.84;100550.16;678698;28;4561;-52
2021/11/13 00:28:54;;;;;;;15.05;11.07;;;;;;;5.20;83.66;100549.28;680358;28;2318;-51
2021/11/13 00:29:14;;;;;;;14.18;10.35;;;;;;;5.24;83.55;100543.31;681422;28;1218;-51
2021/11/13 00:29:35;;;;;;;14.03;9.83;;;;;;;5.26;83.42;100544.19;682243;28;1426;-51
2021/11/13 00:29:56;;;;;;;14.10;10.10;;;;;;;5.34;83.26;100544.31;681048;29;1141;-50
2021/11/13 00:30:17;;;;;;;13.90;9.88;;;;;;;5.31;83.34;100542.53;681180;28;1295;-52
2021/11/13 00:30:41;;;;;;;14.50;9.90;;;;;;;5.22;83.25;100542.41;677675;29;1156;-52
2021/11/13 00:31:01;;;;;;;14.15;10.18;;;;;;;5.18;84.06;100545.78;679250;29;1149;-53
2021/11/13 00:31:22;;;;;;;13.82;10.02;;;;;;;5.13;84.19;100550.06;676868;28;4676;-53
2021/11/13 00:31:42;;;;;;;14.07;10.40;;;;;;;5.09;84.54;100549.13;678409;28;3096;-51
2021/11/13 00:32:04;;;;;;;14.50;10.80;;;;;;;5.07;84.56;100550.81;678341;29;3579;-54
2021/11/13 00:32:27;;;;;;;14.63;10.50;;;;;;;5.07;84.02;100551.69;679505;28;1907;-52
2021/11/13 00:32:48;;;;;;;13.50;9.75;;;;;;;5.11;83.60;100553.47;680414;28;1359;-55
2021/11/13 00:33:09;;;;;;;13.55;9.80;;;;;;;5.02;84.01;100547.28;679182;28;1295;-53
2021/11/13 00:33:29;;;;;;;14.05;10.10;;;;;;;4.98;84.40;100548.06;679095;29;1408;-54
2021/11/13 00:33:50;;;;;;;13.90;10.00;;;;;;;4.92;84.65;100538.50;679839;29;1049;-52
2021/11/13 00:34:10;;;;;;;13.80;9.98;;;;;;;4.95;84.76;100548.91;681626;28;1078;-53
2021/11/13 00:34:31;;;;;;;12.73;9.83;;;;;;;5.01;84.27;100542.94;681364;28;5467;-52
2021/11/13 00:34:51;;;;;;;13.68;9.88;;;;;;;5.01;84.37;100536.06;680362;28;3514;-54
2021/11/13 00:35:14;;;;;;;13.73;9.87;;;;;;;5.12;83.52;100538.78;680832;28;1377;-51
2021/11/13 00:35:35;;;;;;;13.70;9.85;;;;;;;5.18;82.99;100540.59;681074;28;1302;-51
2021/11/13 00:35:56;;;;;;;13.80;10.00;;;;;;;5.26;83.27;100536.41;680285;28;1668;-53
2021/11/13 00:36:16;;;;;;;14.93;10.05;;;;;;;5.21;83.31;100544.13;680507;28;1084;-52
2021/11/13 00:36:37;;;;;;;13.57;9.90;;;;;;;5.24;83.39;100541.56;683514;28;1522;-50
2021/11/13 00:36:58;;;;;;;13.57;9.97;;;;;;;5.15;83.57;100541.47;683971;28;1090;-55
2021/11/13 00:37:18;;;;;;;13.65;10.13;;;;;;;5.08;84.25;100537.88;682869;28;1366;-56
2021/11/13 00:37:39;;;;;;;13.60;10.25;;;;;;;5.14;84.02;100536.22;681352;28;4771;-50
2021/11/13 00:37:59;;;;;;;13.88;9.63;;;;;;;5.14;83.59;100538.81;682048;28;2244;-50
2021/11/13 00:38:20;;;;;;;14.33;9.90;;;;;;;5.20;83.60;100538.94;682940;28;1306;-51
2021/11/13 00:38:41;;;;;;;13.93;9.90;;;;;;;5.26;83.22;100539.00;681820;28;1344;-49
2021/11/13 00:39:02;;;;;;;14.23;10.17;;;;;;;5.20;83.37;100536.34;682027;28;1331;-52
2021/11/13 00:39:25;;;;;;;14.18;9.93;;;;;;;5.20;83.20;100534.59;681165;28;1132;-51
2021/11/13 00:39:45;;;;;;;14.07;9.35;;;;;;;5.28;83.28;100535.59;680998;28;1540;-53
2021/11/13 00:40:07;;;;;;;12.85;9.48;;;;;;;5.30;82.80;100538.19;680497;28;1197;-52
2021/11/13 00:40:28;;;;;;;13.23;9.93;;;;;;;5.28;82.12;100540.78;679789;28;4576;-51
2021/11/13 00:40:48;;;;;;;12.65;9.60;;;;;;;5.24;82.60;100538.97;680543;28;2466;-51
2021/11/13 00:41:09;;;;;;;13.75;9.70;;;;;;;5.24;82.69;100532.94;681243;28;1255;-49
2021/11/13 00:41:29;;;;;;;14.43;10.03;;;;;;;5.21;82.72;100530.31;681832;28;1472;-50
2021/11/13 00:41:51;;;;;;;15.15;9.80;;;;;;;5.23;83.47;100542.44;679353;28;1263;-52
2021/11/13 00:42:11;;;;;;;14.60;9.85;;;;;;;5.22;83.34;100532.03;682254;28;1969;-51
2021/11/13 00:42:32;;;;;;;14.27;9.90;;;;;;;5.14;83.88;100533.63;681250;28;3882;-54
2021/11/13 00:42:52;;;;;;;13.90;9.43;;;;;;;5.18;83.53;100538.91;680586;28;1248;-48
2021/11/13 00:43:13;;;;;;;13.40;9.00;;;;;;;5.24;82.95;100538.13;680822;28;1340;-50
2021/11/13 00:43:34;;;;;;;13.43;9.23;;;;;;;5.28;82.18;100527.81;678103;28;4448;-51
2021/11/13 00:43:55;;;;;;;12.93;9.63;;;;;;;5.25;82.61;100534.69;680544;28;2081;-50
2021/11/13 00:44:17;;;;;;;13.77;9.05;;;;;;;5.32;82.49;100533.94;681062;28;1099;-51
2021/11/13 00:44:37;;;;;;;13.27;9.45;;;;;;;5.21;82.85;100530.31;681051;28;1322;-51
2021/11/13 00:44:57;;;;;;;14.03;9.73;;;;;;;5.18;83.15;100541.50;680122;28;1606;-52
2021/11/13 00:45:20;;;;;;;15.10;9.80;;;;;;;5.14;82.86;100536.22;682043;28;1144;-53
2021/11/13 00:45:40;;;;;;;13.73;9.60;;;;;;;5.10;83.50;100540.50;682053;28;1320;-50
2021/11/13 00:46:00;;;;;;;13.10;9.55;;;;;;;5.05;83.74;100537.84;683728;28;1113;-54
2021/11/13 00:46:22;;;;;;;13.27;9.70;;;;;;;5.04;84.29;100541.28;684383;28;1205;-50
2021/11/13 00:46:42;;;;;;;14.55;10.07;;;;;;;5.09;83.64;100533.56;682562;28;4955;-52
2021/11/13 00:47:04;;;;;;;13.50;9.73;;;;;;;5.16;82.98;100534.53;683439;28;1334;-50
2021/11/13 00:47:24;;;;;;;13.98;9.90;;;;;;;5.15;83.34;100537.97;683048;28;1607;-51
2021/11/13 00:47:45;;;;;;;13.97;9.60;;;;;;;5.08;83.91;100537.88;682308;28;1794;-50
2021/11/13 00:48:05;;;;;;;13.35;9.30;;;;;;;4.98;85.08;100537.72;682598;28;1211;-52
2021/11/13 00:48:26;;;;;;;13.73;9.47;;;;;;;4.97;84.77;100544.63;682693;28;1433;-52
2021/11/13 00:48:47;;;;;;;14.52;9.70;;;;;;;4.99;84.63;100537.75;682772;28;1125;-50
2021/11/13 00:49:08;;;;;;;13.67;9.80;;;;;;;4.95;84.83;100538.53;682672;28;1178;-50
2021/11/13 00:49:30;;;;;;;14.02;10.10;;;;;;;4.92;84.62;100548.84;680713;28;4626;-53
2021/11/13 00:49:50;;;;;;;14.52;10.02;;;;;;;4.96;84.79;100545.47;680026;28;3441;-51
2021/11/13 00:50:13;;;;;;;13.57;9.67;;;;;;;5.09;83.46;100544.78;680522;28;1441;-50
2021/11/13 00:50:33;;;;;;;13.05;9.80;;;;;;;5.02;84.06;100542.97;681707;28;1188;-50
2021/11/13 00:50:54;;;;;;;13.45;9.82;;;;;;;4.95;84.99;100543.72;680790;28;1559;-52
2021/11/13 00:51:14;;;;;;;13.70;10.23;;;;;;;4.91;84.99;100550.56;680955;28;1447;-53
2021/11/13 00:51:36;;;;;;;14.45;10.20;;;;;;;4.87;85.23;100550.50;682517;28;1246;-52
2021/11/13 00:51:56;;;;;;;13.25;9.52;;;;;;;4.84;85.44;100545.25;681514;28;1141;-53
2021/11/13 00:52:17;;;;;;;14.23;10.47;;;;;;;4.88;84.94;100552.25;680885;28;1580;-50
2021/11/13 00:52:37;;;;;;;14.37;10.57;;;;;;;4.92;84.74;100552.31;680795;28;4598;-52
2021/11/13 00:52:58;;;;;;;14.10;10.07;;;;;;;4.85;85.70;100547.88;680954;28;3634;-50
2021/11/13 00:53:19;;;;;;;14.82;10.27;;;;;;;4.82;85.96;100544.34;681449;28;1365;-49
2021/11/13 00:53:39;;;;;;;14.82;9.73;;;;;;;4.94;85.22;100541.97;680887;28;1238;-50
2021/11/13 00:54:00;;;;;;;14.00;10.07;;;;;;;5.05;84.78;100548.22;680828;28;1288;-52
2021/11/13 00:54:20;;;;;;;17.25;10.35;;;;;;;5.00;85.08;100546.38;680952;28;1292;-55
2021/11/13 00:54:41;;;;;;;14.48;10.15;;;;;;;4.88;86.30;100545.31;681021;28;1153;-51
2021/11/13 00:55:01;;;;;;;13.13;9.90;;;;;;;5.01;85.17;100546.41;681201;28;1463;-51
2021/11/13 00:55:23;;;;;;;13.73;9.85;;;;;;;5.01;84.38;100536.06;680438;28;4473;-50
2021/11/13 00:55:43;;;;;;;13.80;9.50;;;;;;;5.20;83.41;100532.00;680746;28;3016;-49
2021/11/13 00:56:04;;;;;;;14.80;9.25;;;;;;;5.29;82.98;100526.13;680414;28;3455;-50
2021/11/13 00:56:24;;;;;;;14.43;9.30;;;;;;;5.34;82.72;100524.44;681001;28;1187;-51
2021/11/13 00:56:46;;;;;;;13.25;9.45;;;;;;;5.31;82.95;100533.91;681046;29;1372;-51
2021/11/13 00:57:08;;;;;;;14.70;10.10;;;;;;;5.33;82.36;100527.91;680430;28;1216;-50
2021/11/13 00:57:28;;;;;;;14.57;9.40;;;;;;;5.35;82.29;100533.97;680608;28;1440;-50
2021/11/13 00:57:48;;;;;;;15.38;9.70;;;;;;;5.34;82.08;100527.03;681077;28;1532;-50
2021/11/13 00:58:09;;;;;;;15.33;9.60;;;;;;;5.34;82.25;100523.56;680925;28;1291;-55
2021/11/13 00:58:29;;;;;;;13.85;9.57;;;;;;;5.34;81.77;100519.25;679146;28;4481;-51
2021/11/13 00:58:50;;;;;;;13.23;9.23;;;;;;;5.37;81.73;100521.91;680746;28;3126;-51
2021/11/13 00:59:10;;;;;;;13.93;9.35;;;;;;;5.36;82.16;100527.94;680919;28;3671;-50
2021/11/13 00:59:32;;;;;;;13.93;9.47;;;;;;;5.25;82.99;100524.31;680571;28;1287;-50
2021/11/13 00:59:53;;;;;;;14.90;9.80;;;;;;;5.18;82.75;100527.66;681232;28;1481;-50
2021/11/13 01:00:16;;;;;;;12.87;9.50;;;;;;;5.17;82.76;100520.75;681797;28;1528;-52
2021/11/13 01:00:36;;;;;;;13.43;9.55;;;;;;;5.21;82.55;100517.34;681085;28;1327;-52
2021/11/13 01:00:57;;;;;;;12.77;9.47;;;;;;;5.17;83.10;100524.19;681987;28;1255;-51
2021/11/13 01:01:18;;;;;;;12.87;9.60;;;;;;;5.16;83.69;100525.03;682196;28;1188;-51
2021/11/13 01:01:38;;;;;;;14.10;10.00;;;;;;;5.27;82.55;100518.31;680673;28;4614;-51
2021/11/13 01:01:58;;;;;;;13.32;9.43;;;;;;;5.24;82.85;100528.63;682016;28;3228;-50
2021/11/13 01:02:19;;;;;;;13.40;9.33;;;;;;;5.21;83.18;100517.34;680785;28;3681;-51
2021/11/13 01:02:43;;;;;;;13.27;9.40;;;;;;;5.13;83.46;100513.78;682484;28;1478;-53
2021/11/13 01:03:03;;;;;;;13.10;8.95;;;;;;;5.26;83.20;100515.69;684425;28;1576;-51
2021/11/13 01:03:23;;;;;;;14.03;9.53;;;;;;;5.23;82.88;100515.63;681915;28;1279;-52
2021/11/13 01:03:44;;;;;;;14.52;9.60;;;;;;;5.12;83.09;100512.88;683011;28;1054;-51
2021/11/13 01:04:04;;;;;;;13.43;9.73;;;;;;;5.16;83.29;100516.41;682864;28;1402;-54
2021/11/13 01:04:25;;;;;;;15.65;9.73;;;;;;;5.25;82.52;100516.53;682619;28;4458;-51
2021/11/13 01:04:46;;;;;;;16.80;9.80;;;;;;;5.28;82.11;100516.59;679244;28;1463;-52
2021/11/13 01:05:07;;;;;;;13.85;9.77;;;;;;;5.28;82.43;100519.19;680732;28;3187;-52
2021/11/13 01:05:29;;;;;;;13.23;9.60;;;;;;;5.32;82.23;100518.38;680222;29;1331;-51
2021/11/13 01:05:49;;;;;;;12.90;9.50;;;;;;;5.26;82.78;100520.84;680768;28;1571;-51
2021/11/13 01:06:10;;;;;;;14.50;9.93;;;;;;;5.24;82.67;100514.78;680892;28;1073;-51
2021/11/13 01:06:31;;;;;;;15.10;9.83;;;;;;;5.19;82.93;100519.91;681240;29;1033;-53
2021/11/13 01:06:52;;;;;;;13.50;9.30;;;;;;;5.17;83.83;100510.38;680802;28;1152;-55
2021/11/13 01:07:12;;;;;;;12.18;9.32;;;;;;;5.16;83.07;100516.41;680903;29;1229;-51
2021/11/13 01:07:33;;;;;;;13.60;9.57;;;;;;;5.22;82.87;100514.78;681335;28;4482;-50
2021/11/13 01:07:53;;;;;;;15.48;9.93;;;;;;;5.29;82.51;100520.94;680383;28;1406;-52
2021/11/13 01:08:14;;;;;;;15.30;9.87;;;;;;;5.33;82.67;100517.53;681436;29;3628;-51
2021/11/13 01:08:34;;;;;;;14.02;9.73;;;;;;;5.33;82.38;100517.53;681036;28;1130;-53
2021/11/13 01:08:54;;;;;;;13.87;9.53;;;;;;;5.30;82.13;100517.47;680646;28;1302;-50
2021/11/13 01:09:15;;;;;;;14.43;9.63;;;;;;;5.29;82.17;100515.75;681714;28;1310;-52
2021/11/13 01:09:36;;;;;;;12.73;9.37;;;;;;;5.20;83.02;100525.97;680388;28;1197;-51
2021/11/13 01:09:56;;;;;;;14.30;9.68;;;;;;;5.26;82.49;100524.34;680376;28;2152;-51
2021/11/13 01:10:19;;;;;;;14.98;9.95;;;;;;;5.26;82.93;100520.84;681149;28;1190;-52
2021/11/13 01:10:39;;;;;;;15.95;10.30;;;;;;;5.24;83.25;100522.56;680060;28;4335;-51
2021/11/13 01:11:00;;;;;;;15.30;9.88;;;;;;;5.22;82.96;100525.16;680412;28;3129;-53
2021/11/13 01:11:21;;;;;;;13.77;9.43;;;;;;;5.14;83.49;100521.56;680643;28;3462;-50
2021/11/13 01:11:41;;;;;;;15.00;9.80;;;;;;;5.16;83.58;100519.00;680594;29;1356;-50
2021/11/13 01:12:02;;;;;;;15.07;10.48;;;;;;;5.19;83.15;100524.22;680347;29;1375;-51
2021/11/13 01:12:23;;;;;;;13.38;9.30;;;;;;;5.26;82.97;100521.75;679650;29;1766;-51
2021/11/13 01:12:44;;;;;;;13.10;9.40;;;;;;;5.21;83.21;100518.22;679622;29;1353;-52
2021/11/13 01:13:04;;;;;;;13.60;10.13;;;;;;;5.21;82.82;100515.63;679713;29;1192;-50
2021/11/13 01:13:25;;;;;;;13.10;9.30;;;;;;;5.28;82.63;100519.19;680454;28;4611;-52
2021/11/13 01:13:48;;;;;;;13.65;9.40;;;;;;;5.25;82.29;100519.13;682727;28;1112;-50
2021/11/13 01:14:08;;;;;;;13.23;9.60;;;;;;;5.32;81.41;100518.38;683228;28;2988;-53
2021/11/13 01:14:29;;;;;;;13.40;9.47;;;;;;;5.36;81.83;100521.84;684541;28;1390;-52
2021/11/13 01:14:50;;;;;;;13.57;9.87;;;;;;;5.30;82.57;100520.06;681025;29;1414;-51
2021/11/13 01:15:12;;;;;;;13.13;9.55;;;;;;;5.33;81.59;100522.72;681733;29;1338;-51
2021/11/13 01:15:32;;;;;;;12.18;9.18;;;;;;;5.33;81.70;100527.91;682295;29;1251;-51
2021/11/13 01:15:55;;;;;;;13.43;9.83;;;;;;;5.33;82.27;100527.91;681872;29;1052;-51
2021/11/13 01:16:17;;;;;;;14.88;10.45;;;;;;;5.22;83.03;100519.06;682304;29;1290;-50
2021/11/13 01:16:37;;;;;;;13.05;8.98;;;;;;;5.26;82.33;100526.03;681331;28;4595;-51
2021/11/13 01:16:57;;;;;;;14.93;9.68;;;;;;;5.18;83.03;100522.47;681562;28;2032;-51
2021/11/13 01:17:18;;;;;;;14.80;10.27;;;;;;;5.13;83.00;100527.59;681056;28;3501;-53
2021/11/13 01:17:39;;;;;;;13.43;9.88;;;;;;;5.06;83.49;100518.84;681209;28;1335;-54
2021/11/13 01:18:00;;;;;;;13.93;10.02;;;;;;;5.00;83.78;100513.59;681377;28;1478;-54
2021/11/13 01:18:20;;;;;;;12.93;9.57;;;;;;;4.94;84.18;100516.94;681242;28;1474;-52
2021/11/13 01:18:42;;;;;;;12.83;9.53;;;;;;;5.01;83.37;100512.75;681156;28;1521;-53
2021/11/13 01:19:04;;;;;;;13.50;9.30;;;;;;;4.97;83.58;100518.72;681202;29;1257;-50
2021/11/13 01:19:25;;;;;;;12.77;9.20;;;;;;;5.11;82.70;100517.19;680091;28;4593;-50
2021/11/13 01:19:47;;;;;;;13.50;9.77;;;;;;;5.07;83.02;100522.31;681304;29;1136;-51
2021/11/13 01:20:10;;;;;;;13.98;10.13;;;;;;;4.99;84.07;100511.81;681243;28;3210;-51
2021/11/13 01:20:31;;;;;;;13.73;10.15;;;;;;;4.96;83.79;100509.19;683316;28;3864;-50
2021/11/13 01:20:52;;;;;;;16.33;10.20;;;;;;;5.08;83.56;100511.97;683396;28;1084;-52
2021/11/13 01:21:13;;;;;;;14.05;9.85;;;;;;;5.05;83.92;100517.13;682548;28;1220;-52
2021/11/13 01:21:33;;;;;;;13.10;9.50;;;;;;;5.02;83.79;100514.47;683356;28;1196;-51
2021/11/13 01:21:54;;;;;;;13.27;10.00;;;;;;;4.99;83.70;100511.81;682531;28;1769;-51
2021/11/13 01:22:16;;;;;;;13.07;9.70;;;;;;;5.09;83.19;100505.94;682783;28;1922;-51
2021/11/13 01:22:37;;;;;;;14.95;9.82;;;;;;;5.17;83.17;100511.22;681275;28;4500;-51
2021/11/13 01:22:59;;;;;;;14.02;9.65;;;;;;;5.18;82.92;100513.00;683800;28;3276;-52
2021/11/13 01:23:20;;;;;;;13.63;9.48;;;;;;;5.19;82.83;100508.66;680083;28;3581;-51
2021/11/13 01:23:40;;;;;;;14.35;9.75;;;;;;;5.24;82.50;100512.19;680189;28;1703;-51
2021/11/13 01:24:01;;;;;;;14.73;9.80;;;;;;;5.29;82.50;100514.00;678886;29;1494;-53
2021/11/13 01:24:23;;;;;;;13.85;9.68;;;;;;;5.24;82.60;100512.19;677736;29;1129;-54
2021/11/13 01:24:44;;;;;;;13.97;9.83;;;;;;;5.19;83.22;100508.66;678003;29;1082;-56
2021/11/13 01:25:06;;;;;;;13.60;10.10;;;;;;;5.11;83.28;100511.16;678654;29;1785;-54
2021/11/13 01:25:28;;;;;;;13.13;9.65;;;;;;;5.00;84.27;100502.31;680064;28;4416;-53
2021/11/13 01:25:48;;;;;;;14.45;9.93;;;;;;;5.02;84.19;100506.69;681505;29;1262;-51
2021/11/13 01:26:09;;;;;;;13.45;10.18;;;;;;;5.00;83.55;100507.50;681152;28;3553;-50
2021/11/13 01:26:30;;;;;;;13.43;9.85;;;;;;;5.02;83.64;100513.59;681785;28;1567;-51
2021/11/13 01:26:50;;;;;;;14.13;9.30;;;;;;;5.23;82.43;100507.84;681245;28;1469;-50
2021/11/13 01:27:11;;;;;;;13.50;9.50;;;;;;;5.24;82.39;100507.88;681579;29;1294;-50
2021/11/13 01:27:31;;;;;;;15.70;10.25;;;;;;;5.31;81.75;100505.41;683709;28;1359;-51
2021/11/13 01:27:52;;;;;;;15.50;10.47;;;;;;;5.38;81.69;100504.63;682502;28;1455;-52
2021/11/13 01:28:14;;;;;;;13.82;9.43;;;;;;;5.42;80.96;100509.84;684209;28;1128;-49
2021/11/13 01:28:34;;;;;;;15.00;8.88;;;;;;;5.41;81.20;100510.72;682938;28;4433;-53
2021/11/13 01:28:55;;;;;;;13.40;9.53;;;;;;;5.38;81.39;100507.22;682838;28;3140;-51
2021/11/13 01:29:15;;;;;;;13.10;9.43;;;;;;;5.36;81.45;100501.13;680321;28;3272;-52
2021/11/13 01:29:35;;;;;;;13.77;9.20;;;;;;;5.41;81.44;100508.16;680644;28;1229;-50
2021/11/13 01:29:56;;;;;;;14.23;9.50;;;;;;;5.39;81.62;100499.47;681499;28;1297;-52
2021/11/13 01:30:19;;;;;;;13.73;9.13;;;;;;;5.41;81.32;100510.72;682477;28;1243;-50
2021/11/13 01:30:40;;;;;;;13.15;9.57;;;;;;;5.35;81.58;100500.25;681343;28;1270;-51
2021/11/13 01:31:00;;;;;;;14.05;10.02;;;;;;;5.38;82.04;100504.63;681654;29;1522;-52
2021/11/13 01:31:21;;;;;;;14.77;9.53;;;;;;;5.41;81.69;100505.56;681393;28;1414;-52
2021/11/13 01:31:41;;;;;;;15.30;9.60;;;;;;;5.39;81.68;100502.03;679737;29;4679;-53
2021/11/13 01:32:02;;;;;;;13.00;9.80;;;;;;;5.34;82.32;100500.25;681375;28;3087;-51
2021/11/13 01:32:23;;;;;;;13.90;10.05;;;;;;;5.29;82.54;100502.78;681089;28;3686;-51
2021/11/13 01:32:45;;;;;;;14.20;9.50;;;;;;;5.23;83.23;100497.50;681064;29;1347;-50
2021/11/13 01:33:05;;;;;;;13.90;9.57;;;;;;;5.21;83.08;100494.88;680971;29;1224;-52
2021/11/13 01:33:25;;;;;;;14.03;9.40;;;;;;;5.23;82.86;100495.78;680764;28;1180;-53
2021/11/13 01:33:46;;;;;;;14.30;9.83;;;;;;;5.27;82.89;100494.09;681315;28;1472;-51
2021/11/13 01:34:06;;;;;;;12.83;9.53;;;;;;;5.29;82.77;100493.28;683558;28;1232;-53
2021/11/13 01:34:27;;;;;;;13.00;9.52;;;;;;;5.38;82.30;100502.03;682744;28;4482;-51
2021/11/13 01:34:47;;;;;;;13.20;9.60;;;;;;;5.38;82.14;100499.44;683394;28;1509;-52
2021/11/13 01:35:08;;;;;;;14.87;9.60;;;;;;;5.30;82.47;100501.91;682526;28;2515;-54
2021/11/13 01:35:29;;;;;;;13.80;9.88;;;;;;;5.23;82.51;100494.91;683568;28;4351;-52
2021/11/13 01:35:50;;;;;;;12.32;9.43;;;;;;;5.22;82.77;100495.75;682559;28;1117;-52
2021/11/13 01:36:12;;;;;;;13.25;9.80;;;;;;;5.23;82.88;100497.50;680665;28;1218;-51
2021/11/13 01:36:32;;;;;;;13.93;10.15;;;;;;;5.28;82.42;100495.84;680957;29;1240;-51
2021/11/13 01:36:52;;;;;;;13.07;9.40;;;;;;;5.22;82.62;100506.09;681837;28;1116;-55
2021/11/13 01:37:13;;;;;;;13.43;9.53;;;;;;;5.16;83.01;100499.13;681751;29;1095;-51
2021/11/13 01:37:34;;;;;;;13.88;9.95;;;;;;;5.27;82.99;100494.09;680812;28;4557;-53
2021/11/13 01:37:54;;;;;;;14.68;9.88;;;;;;;5.25;82.73;100499.25;681187;28;1399;-51
2021/11/13 01:38:16;;;;;;;14.60;9.80;;;;;;;5.34;82.24;100490.72;681112;28;2204;-53
2021/11/13 01:38:38;;;;;;;13.88;9.57;;;;;;;5.32;82.40;100489.84;680403;28;1190;-51
2021/11/13 01:38:59;;;;;;;14.40;9.73;;;;;;;5.35;82.46;100479.53;681705;28;1277;-51
2021/11/13 01:39:20;;;;;;;14.37;9.87;;;;;;;5.28;82.58;100473.38;681991;28;1375;-51
2021/11/13 01:39:40;;;;;;;14.03;9.63;;;;;;;5.31;82.95;100480.31;681791;28;1228;-51